Time;durP1;ratioP1;P1;durP2;ratioP2;P2;SDS_P1;SDS_P2;PMS_P1;PMS_P2;Temp;Humidity;BMP_temperature;BMP_pressure;BME280_temperature;BME280_humidity;BME280_pressure;Samples;Min_cycle;Max_cycle;Signal;HPM_P1;HPM_P2
2022/01/01 00:01:26;;;;;;;10.33;6.93;;;;;;;12.00;62.96;100070.59;4954804;28;20230;-67
2022/01/01 00:03:53;;;;;;;9.77;7.93;;;;;;;12.50;61.33;100039.09;4961738;28;20223;-67
2022/01/01 00:06:20;;;;;;;9.20;7.30;;;;;;;11.92;63.61;100066.16;4965270;28;20576;-67
2022/01/01 00:08:47;;;;;;;10.87;6.90;;;;;;;12.03;63.06;100067.59;4965081;28;20241;-67
2022/01/01 00:11:17;;;;;;;9.73;6.73;;;;;;;12.43;61.92;100046.16;4964339;28;20229;-66
2022/01/01 00:13:50;;;;;;;7.60;6.00;;;;;;;12.30;62.13;100058.25;4962533;28;20243;-67
2022/01/01 00:16:17;;;;;;;6.77;5.10;;;;;;;12.17;62.18;100078.56;4960929;28;20758;-67
2022/01/01 00:18:44;;;;;;;6.17;4.53;;;;;;;12.38;62.09;100062.75;4995882;28;20796;-67
2022/01/01 00:21:11;;;;;;;7.40;5.20;;;;;;;12.13;63.05;100075.41;5009003;28;20232;-66
2022/01/01 00:23:38;;;;;;;7.97;6.50;;;;;;;12.26;62.62;100077.50;5006723;28;20229;-67
2022/01/01 00:26:05;;;;;;;7.10;5.43;;;;;;;12.20;63.06;100071.03;5004562;28;20243;-67
2022/01/01 00:28:32;;;;;;;7.90;4.60;;;;;;;12.29;63.13;100061.09;4996759;28;20606;-67
2022/01/01 00:30:59;;;;;;;5.77;4.67;;;;;;;12.02;63.65;100089.16;5002163;28;20229;-67
2022/01/01 00:33:29;;;;;;;7.17;4.57;;;;;;;12.83;62.20;100041.53;5001976;28;20719;-67
2022/01/01 00:35:56;;;;;;;6.70;4.70;;;;;;;12.10;64.09;100083.78;5005214;28;20596;-67
2022/01/01 00:38:24;;;;;;;5.63;4.90;;;;;;;11.64;65.45;100119.13;5022902;28;20249;-67
2022/01/01 00:40:51;;;;;;;7.43;5.33;;;;;;;12.75;62.29;100047.81;4993947;28;20649;-67
2022/01/01 00:43:18;;;;;;;7.67;5.30;;;;;;;12.70;62.46;100061.69;4997077;28;20221;-67
2022/01/01 00:45:45;;;;;;;6.63;5.40;;;;;;;12.55;62.90;100060.78;5000124;28;20233;-67
2022/01/01 00:48:12;;;;;;;8.17;5.73;;;;;;;12.28;63.44;100087.03;4994945;28;20226;-67
2022/01/01 00:50:39;;;;;;;6.83;5.30;;;;;;;12.93;61.68;100039.44;5000734;28;20230;-67
2022/01/01 00:53:06;;;;;;;7.93;5.60;;;;;;;12.87;62.20;100050.91;4984323;28;20237;-67
2022/01/01 00:55:34;;;;;;;6.73;5.50;;;;;;;12.85;63.23;100056.44;4998454;28;20232;-67
2022/01/01 00:58:01;;;;;;;7.40;5.77;;;;;;;12.50;63.76;100073.88;4988295;28;20743;-67
2022/01/01 01:00:28;;;;;;;8.47;6.00;;;;;;;12.42;63.13;100071.25;4995513;28;20243;-67
2022/01/01 01:02:55;;;;;;;10.93;6.53;;;;;;;13.08;62.84;100042.16;4998845;28;20244;-67
2022/01/01 01:05:22;;;;;;;8.90;6.73;;;;;;;12.47;63.41;100076.91;4998845;28;20225;-67
2022/01/01 01:07:49;;;;;;;8.43;6.60;;;;;;;12.87;62.33;100046.38;4993836;28;20245;-67
2022/01/01 01:10:16;;;;;;;9.10;6.87;;;;;;;13.30;61.79;100043.13;5004028;28;20727;-67
2022/01/01 01:12:47;;;;;;;8.73;6.70;;;;;;;13.67;60.78;100019.16;5005955;28;20470;-67
2022/01/01 01:15:19;;;;;;;8.43;6.77;;;;;;;13.17;61.61;100049.13;5007408;28;20578;-67
2022/01/01 01:17:48;;;;;;;10.57;8.03;;;;;;;12.83;63.40;100076.34;5002947;28;20729;-67
2022/01/01 01:20:20;;;;;;;9.67;7.37;;;;;;;12.83;62.63;100076.34;4993788;28;20260;-67
2022/01/01 01:22:47;;;;;;;13.70;8.00;;;;;;;13.41;61.21;100037.31;5000380;28;20241;-67
2022/01/01 01:25:14;;;;;;;9.73;7.40;;;;;;;13.23;61.09;100050.22;5006704;28;20231;-67
2022/01/01 01:27:41;;;;;;;11.83;8.07;;;;;;;12.83;63.71;100074.50;5005496;28;20233;-67
2022/01/01 01:30:14;;;;;;;12.20;8.07;;;;;;;12.87;62.63;100075.81;5004731;28;20229;-66
2022/01/01 01:32:42;;;;;;;11.20;7.70;;;;;;;13.28;61.80;100063.91;5003835;28;20237;-67
2022/01/01 01:35:11;;;;;;;10.50;7.27;;;;;;;13.48;61.24;100052.66;4994701;28;20255;-67
2022/01/01 01:37:39;;;;;;;11.17;7.87;;;;;;;13.16;61.32;100066.19;5006754;28;20227;-67
2022/01/01 01:40:07;;;;;;;8.80;6.50;;;;;;;13.21;61.34;100069.16;5005195;28;20608;-66
2022/01/01 01:42:35;;;;;;;11.20;7.27;;;;;;;13.29;61.74;100062.06;4986903;28;20631;-67
2022/01/01 01:45:04;;;;;;;9.70;7.20;;;;;;;13.50;61.09;100039.91;5002204;28;20235;-67
2022/01/01 01:47:34;;;;;;;10.13;6.67;;;;;;;13.43;61.27;100055.91;4995032;28;20233;-67
2022/01/01 01:50:05;;;;;;;10.33;7.17;;;;;;;11.81;65.03;100117.25;4998867;28;20229;-67
2022/01/01 01:52:37;;;;;;;11.13;8.00;;;;;;;10.56;69.09;100156.59;4990359;28;20487;-67
2022/01/01 01:55:07;;;;;;;9.63;7.67;;;;;;;11.21;68.58;100126.53;4989326;28;20230;-67
2022/01/01 01:57:35;;;;;;;10.90;8.23;;;;;;;10.55;70.69;100129.06;4991147;28;20217;-67
2022/01/01 02:03:11;;;;;;;10.30;7.97;;;;;;;10.52;70.16;100116.06;4993828;28;21538;-67
2022/01/01 02:05:39;;;;;;;12.40;8.77;;;;;;;10.00;72.85;100129.53;5003221;28;20241;-67
2022/01/01 02:08:07;;;;;;;12.60;8.77;;;;;;;10.89;71.04;100058.78;4998362;28;20236;-67
2022/01/01 02:10:34;;;;;;;13.67;9.03;;;;;;;10.01;72.16;100124.03;4973013;28;20656;-66
2022/01/01 02:13:11;;;;;;;11.60;8.80;;;;;;;11.39;66.54;100084.44;4998279;28;20241;-67
2022/01/01 02:18:05;;;;;;;14.33;9.17;;;;;;;12.24;66.31;100032.22;4972814;28;20522;-67
2022/01/01 02:20:32;;;;;;;12.40;8.50;;;;;;;13.60;60.88;99992.22;4966981;28;21390;-67
2022/01/01 02:23:01;;;;;;;13.33;9.80;;;;;;;13.42;61.87;100014.88;4965771;28;20235;-67
2022/01/01 02:25:29;;;;;;;13.93;9.60;;;;;;;10.35;70.17;100146.34;4965880;28;20264;-67
2022/01/01 02:27:56;;;;;;;14.03;9.30;;;;;;;10.22;72.83;100134.31;4956003;28;20234;-67
2022/01/01 02:30:23;;;;;;;11.27;8.33;;;;;;;12.19;66.65;100017.72;4969000;28;20245;-67
2022/01/01 02:32:50;;;;;;;14.83;9.73;;;;;;;13.43;61.63;99981.69;4967198;28;20629;-66
2022/01/01 02:35:18;;;;;;;15.13;9.57;;;;;;;13.97;60.05;99972.50;4966584;28;20245;-67
2022/01/01 02:37:45;;;;;;;13.20;9.73;;;;;;;13.77;60.26;99985.66;4957154;28;20220;-67
2022/01/01 02:40:14;;;;;;;17.27;10.27;;;;;;;13.34;61.54;100014.97;4957195;28;20235;-67
2022/01/01 02:42:43;;;;;;;14.33;9.87;;;;;;;13.67;59.99;99995.84;4961850;28;20234;-67
2022/01/01 02:45:11;;;;;;;15.53;9.93;;;;;;;13.09;60.97;100037.66;4964357;28;20225;-67
2022/01/01 02:47:39;;;;;;;16.47;11.63;;;;;;;13.57;60.84;100032.78;4967539;28;20231;-67
2022/01/01 02:50:07;;;;;;;15.67;9.93;;;;;;;10.92;67.53;100119.00;4962956;28;20233;-67
2022/01/01 02:52:34;;;;;;;13.60;10.70;;;;;;;12.57;64.32;100039.22;4958415;28;21564;-67
2022/01/01 02:55:02;;;;;;;19.40;10.13;;;;;;;11.99;64.93;100089.50;4957054;28;20723;-67
2022/01/01 02:57:29;;;;;;;16.33;10.10;;;;;;;11.42;67.51;100095.81;4966957;28;20226;-67
2022/01/01 02:59:56;;;;;;;14.70;10.37;;;;;;;10.97;67.81;100122.00;4966668;28;20490;-66
2022/01/01 03:02:23;;;;;;;18.07;9.90;;;;;;;8.77;75.10;100153.38;4964513;28;20417;-67
2022/01/01 03:04:50;;;;;;;18.43;10.53;;;;;;;9.08;75.00;100124.53;4967010;28;20245;-66
2022/01/01 03:07:17;;;;;;;15.23;10.70;;;;;;;8.66;75.54;100133.09;4970550;28;20259;-66
2022/01/01 03:09:44;;;;;;;16.80;11.27;;;;;;;9.99;70.68;100078.06;4963107;28;20237;-67
2022/01/01 03:12:13;;;;;;;17.33;11.53;;;;;;;9.54;73.09;100090.63;4965906;28;20227;-67
2022/01/01 03:14:41;;;;;;;18.70;12.63;;;;;;;8.87;74.61;100114.22;5001470;28;20743;-67
2022/01/01 03:17:08;;;;;;;21.00;15.03;;;;;;;8.51;76.78;100119.47;5004894;28;20229;-67
2022/01/01 03:19:36;;;;;;;21.53;13.93;;;;;;;10.02;71.88;100028.94;4994614;28;20229;-66
2022/01/01 03:22:04;;;;;;;20.63;14.57;;;;;;;10.10;71.13;100037.78;4994689;28;20229;-67
2022/01/01 03:24:31;;;;;;;22.93;16.20;;;;;;;8.51;74.56;100122.13;5004964;28;20233;-67
2022/01/01 03:26:58;;;;;;;21.83;15.63;;;;;;;9.68;72.65;100049.25;5005479;28;20233;-66
2022/01/01 03:29:28;;;;;;;21.63;15.30;;;;;;;8.58;72.50;100101.09;5003512;28;20217;-66
2022/01/01 03:31:55;;;;;;;23.43;15.73;;;;;;;8.68;72.46;100101.03;5002278;28;20239;-66
2022/01/01 03:34:22;;;;;;;23.60;15.93;;;;;;;8.68;73.84;100085.06;4990828;28;20637;-67
2022/01/01 03:36:49;;;;;;;23.87;16.47;;;;;;;8.29;74.26;100086.16;5003942;28;20229;-67
2022/01/01 03:39:16;;;;;;;24.73;15.93;;;;;;;8.59;72.48;100082.34;4996689;28;20225;-66
2022/01/01 03:41:43;;;;;;;26.80;17.27;;;;;;;8.56;72.87;100093.25;5000270;28;20232;-66
2022/01/01 03:44:10;;;;;;;26.03;15.63;;;;;;;8.23;73.18;100098.22;5003765;28;20217;-67
2022/01/01 03:46:37;;;;;;;26.70;16.67;;;;;;;9.09;69.00;100067.69;4999819;28;20243;-67
2022/01/01 03:49:04;;;;;;;21.63;14.57;;;;;;;10.46;67.55;99992.19;5001607;28;20233;-66
2022/01/01 03:51:31;;;;;;;20.83;14.83;;;;;;;12.22;61.83;99939.81;5002824;28;20240;-66
2022/01/01 03:53:58;;;;;;;18.07;13.73;;;;;;;13.07;59.46;99939.56;4997641;28;20702;-67
2022/01/01 03:56:25;;;;;;;20.97;15.27;;;;;;;12.82;59.08;99968.44;5007699;28;20213;-67
2022/01/01 03:58:52;;;;;;;21.70;13.93;;;;;;;13.57;57.85;99947.84;5004371;28;20274;-67
2022/01/01 04:01:19;;;;;;;23.23;14.43;;;;;;;13.37;57.15;99966.38;4996610;28;20229;-67
2022/01/01 04:03:46;;;;;;;18.30;13.90;;;;;;;12.77;58.64;100008.31;4993571;28;20236;-67
2022/01/01 04:06:13;;;;;;;19.03;13.80;;;;;;;12.08;59.59;100040.34;5005362;28;20230;-67
2022/01/01 04:08:40;;;;;;;20.87;14.17;;;;;;;12.54;59.10;100013.63;5008842;28;20233;-67
2022/01/01 04:11:07;;;;;;;17.80;12.97;;;;;;;12.22;60.30;100023.53;5006497;28;20233;-67
2022/01/01 04:13:34;;;;;;;17.27;12.33;;;;;;;13.22;57.83;99968.19;4998030;28;20721;-67
2022/01/01 04:16:01;;;;;;;16.23;11.83;;;;;;;13.10;57.80;99970.50;5002954;28;20254;-67
2022/01/01 04:18:38;;;;;;;16.93;11.60;;;;;;;13.26;57.59;99967.66;5004623;28;20226;-67
2022/01/01 04:21:09;;;;;;;16.07;11.50;;;;;;;12.66;58.69;99996.16;5006779;28;20237;-66
2022/01/01 04:23:37;;;;;;;15.17;10.67;;;;;;;12.83;57.97;99985.31;5005043;28;20708;-67
2022/01/01 04:26:07;;;;;;;13.00;10.43;;;;;;;10.60;59.96;100049.38;4998663;28;20608;-67
2022/01/01 04:28:35;;;;;;;17.17;12.17;;;;;;;11.40;61.15;100035.38;4979592;28;20838;-67
2022/01/01 04:31:03;;;;;;;15.73;11.47;;;;;;;11.45;62.22;100012.66;5007226;28;20233;-67
2022/01/01 04:33:30;;;;;;;18.00;10.97;;;;;;;11.21;61.29;100028.56;5003994;28;20213;-67
2022/01/01 04:35:57;;;;;;;13.17;9.73;;;;;;;11.24;61.05;100031.91;4976804;28;20234;-67
2022/01/01 04:38:37;;;;;;;15.37;10.63;;;;;;;12.32;58.18;99978.66;4992734;28;20638;-67
2022/01/01 04:41:10;;;;;;;14.87;10.13;;;;;;;11.88;59.36;100013.19;5012314;28;20252;-67
2022/01/01 04:43:42;;;;;;;12.93;9.70;;;;;;;12.38;58.48;99986.97;4999937;28;20458;-67
2022/01/01 04:46:12;;;;;;;15.40;10.83;;;;;;;12.96;56.60;99968.66;5008134;28;20229;-66
2022/01/01 04:48:40;;;;;;;15.20;10.10;;;;;;;12.37;57.92;100009.41;5001475;28;20267;-67
2022/01/01 04:51:11;;;;;;;15.03;11.23;;;;;;;11.99;59.13;100031.53;4995687;28;20238;-67
2022/01/01 04:53:44;;;;;;;15.63;10.53;;;;;;;12.05;58.04;100046.03;4994725;28;20243;-67
2022/01/01 04:56:17;;;;;;;15.87;10.70;;;;;;;11.69;58.93;100054.50;5001555;28;20237;-66
2022/01/01 04:58:45;;;;;;;17.40;11.47;;;;;;;11.65;59.30;100055.84;4984322;28;20231;-67
2022/01/01 05:01:14;;;;;;;14.83;10.67;;;;;;;11.45;59.22;100064.25;5006042;28;20226;-66
2022/01/01 05:03:42;;;;;;;15.67;10.93;;;;;;;11.33;60.09;100077.13;5005057;28;20225;-66
2022/01/01 05:06:09;;;;;;;16.10;10.73;;;;;;;10.77;61.20;100102.78;4997219;28;20233;-67
2022/01/01 05:08:36;;;;;;;14.20;11.10;;;;;;;11.75;58.33;100068.00;4997308;28;20761;-67
2022/01/01 05:11:03;;;;;;;15.17;11.37;;;;;;;12.23;57.11;100057.31;5002837;28;20238;-66
2022/01/01 05:13:30;;;;;;;16.37;11.60;;;;;;;12.12;57.58;100060.34;5007216;28;20313;-66
2022/01/01 05:15:57;;;;;;;15.80;11.20;;;;;;;11.78;58.25;100077.50;5004102;28;20227;-67
2022/01/01 05:18:24;;;;;;;15.40;11.43;;;;;;;12.17;57.30;100063.34;5002563;28;20240;-67
2022/01/01 05:20:51;;;;;;;15.77;11.90;;;;;;;12.21;57.38;100053.97;4995532;28;20709;-67
2022/01/01 05:23:18;;;;;;;16.10;11.80;;;;;;;11.92;57.74;100079.50;5006858;28;20236;-66
2022/01/01 05:25:45;;;;;;;16.17;11.80;;;;;;;11.96;57.40;100078.16;5001456;28;20229;-67
2022/01/01 05:28:11;;;;;;;15.83;11.97;;;;;;;12.10;57.54;100070.41;5020106;28;20233;-67
2022/01/01 05:30:38;;;;;;;16.33;11.70;;;;;;;12.04;58.53;100068.41;5001962;28;20610;-67
2022/01/01 05:33:05;;;;;;;17.30;11.63;;;;;;;11.25;59.68;100114.50;4994565;28;20237;-66
2022/01/01 05:35:32;;;;;;;15.67;11.23;;;;;;;11.89;59.19;100065.66;5011390;28;20228;-67
2022/01/01 05:37:59;;;;;;;14.93;10.90;;;;;;;12.60;57.10;100036.19;5006967;28;20244;-66
2022/01/01 05:40:46;;;;;;;16.97;11.83;;;;;;;11.90;58.08;100076.16;4991131;28;20229;-67
2022/01/01 05:43:13;;;;;;;16.37;12.07;;;;;;;12.46;57.47;100051.13;5002157;28;20221;-66
2022/01/01 05:45:42;;;;;;;16.27;11.47;;;;;;;12.85;56.33;100026.16;4996975;28;20618;-67
2022/01/01 05:48:10;;;;;;;17.83;12.17;;;;;;;12.89;55.98;100044.34;4998828;28;20607;-67
2022/01/01 05:50:37;;;;;;;22.63;14.23;;;;;;;12.88;56.43;100036.47;4998266;28;20239;-67
2022/01/01 05:53:04;;;;;;;16.30;12.23;;;;;;;12.74;56.54;100045.28;5003380;28;20229;-66
2022/01/01 05:55:31;;;;;;;21.50;16.13;;;;;;;12.22;57.88;100062.81;5004896;28;20222;-67
2022/01/01 05:57:58;;;;;;;17.60;13.13;;;;;;;11.92;58.21;100079.50;5001592;28;20229;-66
2022/01/01 06:00:25;;;;;;;17.70;12.47;;;;;;;11.22;59.84;100112.19;4992147;28;20240;-67
2022/01/01 06:02:52;;;;;;;19.90;13.60;;;;;;;12.67;57.01;100040.63;5005997;28;20239;-67
2022/01/01 06:05:19;;;;;;;18.90;14.70;;;;;;;12.93;56.21;100031.41;5005327;28;20218;-67
2022/01/01 06:07:46;;;;;;;19.97;14.33;;;;;;;12.01;58.21;100087.50;4991208;28;20226;-67
2022/01/01 06:10:12;;;;;;;21.17;13.87;;;;;;;11.92;58.46;100090.19;5006066;28;20229;-67
2022/01/01 06:12:40;;;;;;;21.63;14.23;;;;;;;12.26;57.45;100058.78;4995233;28;20232;-67
2022/01/01 06:15:07;;;;;;;20.23;13.73;;;;;;;12.05;58.52;100080.78;4992292;28;20229;-67
2022/01/01 06:17:34;;;;;;;19.90;14.03;;;;;;;12.19;57.72;100063.16;4999233;28;20217;-67
2022/01/01 06:20:03;;;;;;;20.97;14.13;;;;;;;12.35;58.12;100059.59;4984382;28;20233;-66
2022/01/01 06:22:30;;;;;;;21.83;13.30;;;;;;;13.26;55.34;100012.38;5002823;28;20283;-67
2022/01/01 06:24:57;;;;;;;20.00;13.93;;;;;;;12.25;57.18;100067.81;4998620;28;20270;-67
2022/01/01 06:27:24;;;;;;;18.77;14.53;;;;;;;11.36;58.14;100105.31;4993276;28;20803;-67
2022/01/01 06:29:51;;;;;;;18.93;13.50;;;;;;;10.13;63.18;100121.91;5012115;28;20225;-66
2022/01/01 06:32:18;;;;;;;19.30;13.83;;;;;;;9.08;67.49;100143.19;4997955;28;20213;-67
2022/01/01 06:34:45;;;;;;;19.23;13.97;;;;;;;9.42;65.93;100134.47;5005660;28;20233;-66
2022/01/01 06:37:12;;;;;;;19.17;15.07;;;;;;;8.99;65.10;100142.28;4988254;28;20773;-67
2022/01/01 06:39:39;;;;;;;17.00;12.80;;;;;;;9.47;65.50;100137.50;4993771;28;20229;-67
2022/01/01 06:42:06;;;;;;;18.40;13.63;;;;;;;9.74;65.27;100096.53;4997262;28;20236;-67
2022/01/01 06:44:33;;;;;;;19.17;13.77;;;;;;;7.64;69.96;100156.06;5004034;28;20620;-66
2022/01/01 06:47:00;;;;;;;17.57;13.77;;;;;;;8.33;68.13;100131.88;4987892;28;20234;-66
2022/01/01 06:49:27;;;;;;;20.87;13.57;;;;;;;7.42;70.76;100151.00;5001205;28;20659;-67
2022/01/01 06:51:54;;;;;;;17.70;12.40;;;;;;;7.62;70.76;100157.16;4981685;28;20255;-66
2022/01/01 06:54:21;;;;;;;18.73;12.47;;;;;;;7.41;71.93;100163.47;4994945;28;20594;-67
2022/01/01 06:56:47;;;;;;;17.80;12.80;;;;;;;7.23;71.88;100142.09;5004803;28;20237;-66
2022/01/01 06:59:14;;;;;;;20.30;14.20;;;;;;;8.09;68.63;100117.31;4998837;28;20233;-66
2022/01/01 07:01:41;;;;;;;19.30;13.97;;;;;;;7.55;70.69;100130.31;4987093;28;20237;-66
2022/01/01 07:04:08;;;;;;;22.87;14.80;;;;;;;8.47;69.41;100093.34;5004437;28;20731;-67
2022/01/01 07:06:37;;;;;;;18.17;13.00;;;;;;;7.59;72.33;100133.59;4992641;28;20237;-66
2022/01/01 07:09:06;;;;;;;17.47;13.10;;;;;;;8.16;68.08;100104.28;5003731;28;20237;-67
2022/01/01 07:11:33;;;;;;;19.47;14.33;;;;;;;7.63;69.82;100108.41;5018656;28;20227;-66
2022/01/01 07:14:00;;;;;;;17.50;13.60;;;;;;;8.29;71.18;100064.91;5005506;28;20231;-66
2022/01/01 07:16:26;;;;;;;20.73;13.50;;;;;;;8.58;69.34;100067.38;4996326;28;20229;-66
2022/01/01 07:18:54;;;;;;;19.27;13.27;;;;;;;9.33;64.13;100059.03;4996046;28;20236;-66
2022/01/01 07:21:20;;;;;;;18.70;14.03;;;;;;;7.17;71.46;100139.19;5002738;28;20226;-66
2022/01/01 07:23:47;;;;;;;21.07;14.07;;;;;;;8.93;67.83;100060.38;5001462;28;20220;-67
2022/01/01 07:26:14;;;;;;;19.57;14.03;;;;;;;11.15;61.16;99967.00;4990455;28;20221;-66
2022/01/01 07:28:41;;;;;;;21.23;14.83;;;;;;;10.85;60.70;100031.56;5001016;28;20240;-66
2022/01/01 07:31:08;;;;;;;19.33;13.57;;;;;;;11.46;59.07;100007.13;5001157;28;20285;-66
2022/01/01 07:33:35;;;;;;;21.83;16.20;;;;;;;11.00;60.45;100036.25;4996887;28;20239;-67
2022/01/01 07:36:02;;;;;;;19.70;14.27;;;;;;;11.02;61.25;100035.09;5008169;28;20226;-66
2022/01/01 07:38:29;;;;;;;18.00;13.80;;;;;;;11.09;60.79;100039.75;5005215;28;20229;-67
2022/01/01 07:40:56;;;;;;;18.27;14.03;;;;;;;8.97;62.56;100101.69;4991447;28;20239;-66
2022/01/01 07:43:23;;;;;;;18.40;13.87;;;;;;;9.95;62.63;100100.72;4999609;28;20229;-67
2022/01/01 07:45:50;;;;;;;20.87;14.13;;;;;;;11.73;59.18;100011.22;4998875;28;20232;-66
2022/01/01 07:48:17;;;;;;;20.37;14.33;;;;;;;12.07;58.01;100007.44;5001666;28;20229;-67
2022/01/01 07:50:44;;;;;;;24.53;16.07;;;;;;;10.59;62.08;100087.75;5008895;28;20241;-67
2022/01/01 07:53:11;;;;;;;23.30;16.90;;;;;;;12.26;57.73;100018.66;5005727;28;20246;-66
2022/01/01 07:55:38;;;;;;;20.97;15.23;;;;;;;11.89;58.41;100033.59;5009159;28;20229;-67
2022/01/01 07:58:05;;;;;;;21.27;15.20;;;;;;;11.48;59.09;100076.41;5001882;28;20240;-67
2022/01/01 08:00:32;;;;;;;22.93;16.57;;;;;;;11.67;57.55;100078.72;4994769;28;20261;-66
2022/01/01 08:02:59;;;;;;;25.30;17.27;;;;;;;11.31;59.26;100091.63;4999300;28;20268;-67
2022/01/01 08:05:26;;;;;;;22.50;15.47;;;;;;;11.58;58.63;100077.06;5006981;28;20226;-67
2022/01/01 08:07:59;;;;;;;22.07;16.17;;;;;;;12.28;56.97;100041.56;5008320;28;20732;-66
2022/01/01 08:10:29;;;;;;;23.40;15.07;;;;;;;11.73;58.45;100077.19;5004570;28;20233;-67
2022/01/01 08:12:56;;;;;;;22.27;15.67;;;;;;;12.05;57.29;100051.38;5011977;28;20515;-66
2022/01/01 08:15:23;;;;;;;20.17;14.47;;;;;;;11.10;60.09;100113.53;5002116;28;20721;-66
2022/01/01 08:17:50;;;;;;;20.40;13.57;;;;;;;11.25;59.60;100102.97;5020994;28;20233;-66
2022/01/01 08:20:17;;;;;;;20.37;14.13;;;;;;;11.19;59.37;100104.50;5006093;28;20227;-67
2022/01/01 08:22:44;;;;;;;23.53;14.57;;;;;;;11.38;58.79;100088.13;5000961;28;20632;-66
2022/01/01 08:25:11;;;;;;;19.00;13.97;;;;;;;9.91;63.38;100168.63;5000288;28;20645;-66
2022/01/01 08:27:38;;;;;;;22.67;15.00;;;;;;;10.99;60.61;100109.31;5000599;28;20229;-67
2022/01/01 08:30:05;;;;;;;20.23;13.77;;;;;;;11.57;59.07;100076.22;5004555;28;20610;-67
2022/01/01 08:32:32;;;;;;;19.93;13.50;;;;;;;10.98;60.59;100121.03;5005698;28;20229;-66
2022/01/01 08:34:59;;;;;;;19.70;14.43;;;;;;;11.56;59.37;100069.22;5008633;28;20627;-66
2022/01/01 08:37:26;;;;;;;21.50;14.60;;;;;;;10.69;61.45;100134.78;5003072;28;20228;-66
2022/01/01 08:39:54;;;;;;;18.70;13.90;;;;;;;11.26;59.95;100093.97;4995941;28;20962;-67
2022/01/01 08:42:21;;;;;;;18.93;13.70;;;;;;;11.76;58.58;100072.34;5003280;28;20229;-66
2022/01/01 08:44:49;;;;;;;19.23;14.13;;;;;;;11.44;59.61;100096.47;4991210;28;20233;-66
2022/01/01 08:47:16;;;;;;;15.90;12.63;;;;;;;11.77;58.25;100079.34;4998612;28;20221;-66
2022/01/01 08:49:43;;;;;;;18.37;13.40;;;;;;;10.85;60.97;100138.31;4999697;28;20229;-66
2022/01/01 08:52:11;;;;;;;21.80;14.30;;;;;;;11.74;59.41;100078.88;4995578;28;20279;-66
2022/01/01 08:54:38;;;;;;;18.17;14.10;;;;;;;11.67;58.61;100091.22;5001148;28;20243;-67
2022/01/01 08:57:08;;;;;;;19.03;13.87;;;;;;;11.74;59.18;100093.06;5007778;28;20239;-66
2022/01/01 08:59:36;;;;;;;18.10;12.93;;;;;;;11.68;58.77;100104.41;4986318;28;20557;-67
2022/01/01 09:02:04;;;;;;;17.70;12.40;;;;;;;10.96;60.45;100134.53;5022528;28;20623;-66
2022/01/01 09:04:31;;;;;;;18.40;14.30;;;;;;;11.90;58.83;100070.81;4990968;28;20623;-67
2022/01/01 09:06:58;;;;;;;18.17;13.73;;;;;;;12.11;58.75;100069.41;4997150;28;20739;-66
2022/01/01 09:09:25;;;;;;;18.07;12.77;;;;;;;11.74;59.62;100087.72;5002706;28;20229;-66
2022/01/01 09:11:54;;;;;;;19.67;13.83;;;;;;;11.42;60.75;100098.47;4996740;28;20230;-67
2022/01/01 09:14:21;;;;;;;20.93;13.40;;;;;;;11.90;59.04;100070.81;5005196;28;20230;-66
2022/01/01 09:16:48;;;;;;;21.47;14.37;;;;;;;11.57;60.46;100100.28;5006816;28;20231;-66
2022/01/01 09:19:15;;;;;;;19.90;13.77;;;;;;;12.24;58.82;100056.31;4996665;28;20236;-67
2022/01/01 09:21:42;;;;;;;19.17;13.33;;;;;;;8.89;67.60;100176.09;4997529;28;20222;-66
2022/01/01 09:24:09;;;;;;;15.80;12.40;;;;;;;9.24;68.37;100163.78;5007134;28;20634;-66
2022/01/01 09:26:36;;;;;;;15.63;12.00;;;;;;;9.82;65.48;100148.22;5006248;28;20231;-67
2022/01/01 09:29:04;;;;;;;17.43;12.83;;;;;;;10.40;65.37;100109.34;4988208;28;20237;-67
2022/01/01 09:31:32;;;;;;;17.77;12.47;;;;;;;8.65;69.08;100186.44;4996889;28;20237;-66
2022/01/01 09:34:03;;;;;;;21.90;12.37;;;;;;;9.44;68.02;100151.16;5000423;28;20747;-66
2022/01/01 09:36:30;;;;;;;22.77;13.93;;;;;;;10.07;66.16;100133.25;4999456;28;20233;-66
2022/01/01 09:38:57;;;;;;;21.70;14.10;;;;;;;11.45;62.71;100066.91;5006586;28;20221;-66
2022/01/01 09:41:25;;;;;;;19.00;11.87;;;;;;;9.49;67.76;100170.16;5004612;28;20238;-66
2022/01/01 09:43:56;;;;;;;15.97;11.60;;;;;;;11.95;61.59;100052.41;5002540;28;20234;-67
2022/01/01 09:46:25;;;;;;;16.77;11.67;;;;;;;12.38;61.03;100041.34;4995072;28;20226;-66
2022/01/01 09:48:55;;;;;;;15.97;11.87;;;;;;;12.13;61.39;100064.72;5020008;28;20237;-66
2022/01/01 09:51:22;;;;;;;18.70;13.00;;;;;;;11.73;63.00;100087.88;5003950;28;20756;-66
2022/01/01 09:53:49;;;;;;;16.80;12.33;;;;;;;11.21;62.97;100107.81;4985516;28;20747;-67
2022/01/01 09:56:17;;;;;;;15.90;12.00;;;;;;;12.18;63.13;100048.97;5006843;28;20224;-66
2022/01/01 09:58:44;;;;;;;17.93;12.10;;;;;;;12.61;61.40;100033.31;4976737;28;20616;-67
2022/01/01 10:01:10;;;;;;;15.87;11.33;;;;;;;10.71;66.09;100133.63;5001546;28;20785;-67
2022/01/01 10:03:44;;;;;;;14.53;11.00;;;;;;;11.91;63.86;100056.44;5005053;28;20229;-67
2022/01/01 10:06:14;;;;;;;14.53;10.83;;;;;;;10.51;67.22;100118.91;4987692;28;20238;-66
2022/01/01 10:08:44;;;;;;;13.60;10.10;;;;;;;10.56;65.93;100112.06;5003274;28;20233;-66
2022/01/01 10:11:16;;;;;;;14.40;10.57;;;;;;;11.21;65.21;100081.13;4998174;28;20731;-66
2022/01/01 10:13:43;;;;;;;15.43;11.73;;;;;;;10.27;67.78;100136.50;4997282;28;20249;-66
2022/01/01 10:16:11;;;;;;;14.80;10.87;;;;;;;12.31;62.97;100011.78;4999698;28;20537;-66
2022/01/01 10:18:47;;;;;;;13.83;10.70;;;;;;;10.50;66.26;100122.56;5006190;28;20252;-66
2022/01/01 10:21:17;;;;;;;14.40;10.03;;;;;;;10.47;66.34;100134.38;5005288;28;20234;-67
2022/01/01 10:23:46;;;;;;;13.27;10.33;;;;;;;10.42;67.01;100137.56;5002885;28;20637;-67
2022/01/01 10:29:06;;;;;;;12.27;9.63;;;;;;;10.77;65.29;100116.94;4985778;28;20239;-66
2022/01/01 10:31:34;;;;;;;12.50;9.53;;;;;;;11.33;63.67;100071.78;4993956;28;20225;-66
2022/01/01 10:34:01;;;;;;;13.90;9.60;;;;;;;11.29;65.26;100074.94;4979551;28;20237;-67
2022/01/01 10:36:30;;;;;;;13.83;9.17;;;;;;;10.72;64.86;100115.78;5003807;28;20225;-67
2022/01/01 10:39:11;;;;;;;14.07;9.60;;;;;;;12.60;62.26;100010.25;4976460;28;20263;-67
2022/01/01 10:41:45;;;;;;;14.47;10.03;;;;;;;11.65;63.86;100061.19;5015472;28;20233;-66
2022/01/01 10:44:13;;;;;;;12.70;9.50;;;;;;;13.07;59.73;99987.78;4988082;28;20216;-67
2022/01/01 10:46:41;;;;;;;12.80;9.33;;;;;;;10.97;64.21;100090.81;5004593;28;20242;-67
2022/01/01 10:52:29;;;;;;;13.37;9.40;;;;;;;10.84;65.60;100085.94;4989518;28;20243;-66
2022/01/01 10:54:58;;;;;;;14.67;10.13;;;;;;;12.09;63.48;100020.59;4982317;28;20255;-67
2022/01/01 10:57:25;;;;;;;14.40;9.67;;;;;;;12.40;62.30;100006.38;5004486;28;20681;-67
2022/01/01 11:00:09;;;;;;;13.33;9.50;;;;;;;12.33;62.48;100007.09;5001732;28;20661;-67
2022/01/01 11:03:46;;;;;;;13.87;10.37;;;;;;;10.24;68.30;100007.00;5069488;27;21094;-68
2022/01/01 11:06:17;;;;;;;12.40;9.83;;;;;;;9.27;70.41;100049.00;5053879;28;20238;-68
2022/01/01 11:08:46;;;;;;;16.63;9.67;;;;;;;10.97;66.62;99959.19;5061182;28;20227;-68
2022/01/01 11:11:14;;;;;;;11.03;8.57;;;;;;;10.87;66.16;99985.22;5063400;28;20223;-68
2022/01/01 11:13:45;;;;;;;17.53;9.33;;;;;;;10.30;66.24;100010.84;5059367;28;20231;-68
2022/01/01 11:16:14;;;;;;;11.27;8.70;;;;;;;9.67;68.75;100047.56;5062541;28;20223;-68
2022/01/01 11:18:44;;;;;;;12.07;8.83;;;;;;;10.02;68.17;100034.28;5049393;28;20240;-68
2022/01/01 11:21:11;;;;;;;11.33;8.03;;;;;;;10.02;67.81;100026.28;5053616;28;20235;-68
2022/01/01 11:23:40;;;;;;;13.30;8.90;;;;;;;10.79;65.01;99988.69;5060701;28;20253;-68
2022/01/01 11:26:08;;;;;;;11.37;8.80;;;;;;;10.63;66.62;99993.03;5062577;28;20436;-68
2022/01/01 11:28:36;;;;;;;12.47;8.40;;;;;;;9.99;67.55;100031.94;5059973;28;20664;-68
2022/01/01 11:31:11;;;;;;;12.63;8.40;;;;;;;10.34;66.40;100003.38;5053425;28;20623;-68